Time;durP1;ratioP1;P1;durP2;ratioP2;P2;SDS_P1;SDS_P2;PMS_P1;PMS_P2;Temp;Humidity;BMP_temperature;BMP_pressure;BME280_temperature;BME280_humidity;BME280_pressure;Samples;Min_cycle;Max_cycle;Signal;HPM_P1;HPM_P2
2023/11/25 00:01:05;;;;;;;12.02;2.65;;;1.60;99.90;;;;;;6290946;22;20087;-85
2023/11/25 00:03:30;;;;;;;10.27;3.72;;;1.50;99.90;;;;;;6290458;22;20001;-84
2023/11/25 00:05:56;;;;;;;14.32;4.00;;;1.50;99.90;;;;;;6292421;22;20013;-85
2023/11/25 00:08:22;;;;;;;12.18;5.53;;;1.50;99.90;;;;;;6290801;22;20094;-85
2023/11/25 00:10:49;;;;;;;17.70;4.57;;;1.50;99.90;;;;;;6292344;22;20016;-84
2023/11/25 00:13:15;;;;;;;15.82;4.72;;;1.50;99.90;;;;;;6292623;22;20013;-84
2023/11/25 00:15:41;;;;;;;9.75;3.85;;;1.50;99.90;;;;;;6291431;22;20541;-84
2023/11/25 00:18:07;;;;;;;14.63;4.32;;;1.50;99.90;;;;;;6290781;22;20020;-85
2023/11/25 00:20:36;;;;;;;8.82;3.80;;;1.50;99.90;;;;;;6290266;22;20062;-84
2023/11/25 00:23:05;;;;;;;12.90;3.78;;;1.50;99.90;;;;;;6291497;22;20001;-83
2023/11/25 00:25:30;;;;;;;14.05;4.60;;;1.60;99.90;;;;;;6292006;22;20052;-85
2023/11/25 00:27:56;;;;;;;12.13;4.13;;;1.60;99.90;;;;;;6291904;22;20005;-85
2023/11/25 00:30:23;;;;;;;14.45;4.75;;;1.60;99.90;;;;;;6289605;22;20074;-85
2023/11/25 00:32:50;;;;;;;16.30;4.50;;;1.60;99.90;;;;;;6291247;22;20320;-85
2023/11/25 00:35:16;;;;;;;16.75;5.22;;;1.50;99.90;;;;;;6291710;22;20012;-85
2023/11/25 00:37:42;;;;;;;16.73;5.80;;;1.60;99.90;;;;;;6292277;22;20009;-84
2023/11/25 00:40:16;;;;;;;11.18;4.68;;;1.60;99.90;;;;;;6292023;22;20013;-84
2023/11/25 00:42:42;;;;;;;13.68;4.45;;;1.70;99.90;;;;;;6291580;22;20009;-84
2023/11/25 00:45:14;;;;;;;13.25;5.30;;;1.70;99.90;;;;;;6290413;22;20009;-84
2023/11/25 00:47:40;;;;;;;8.95;5.15;;;1.80;99.90;;;;;;6291490;22;20001;-84
2023/11/25 00:50:10;;;;;;;15.07;4.55;;;1.80;99.90;;;;;;6291068;22;20008;-84
2023/11/25 00:52:37;;;;;;;11.13;4.90;;;1.80;99.90;;;;;;6291418;22;20005;-85
2023/11/25 00:55:03;;;;;;;14.60;5.13;;;1.70;99.90;;;;;;6289278;22;20339;-85
2023/11/25 00:57:29;;;;;;;19.02;5.95;;;1.70;99.90;;;;;;6290252;22;20005;-85
2023/11/25 00:59:55;;;;;;;16.00;4.45;;;1.70;99.90;;;;;;6289109;22;20005;-84
2023/11/25 01:02:21;;;;;;;12.90;4.53;;;1.60;99.90;;;;;;6289647;22;19998;-85
2023/11/25 01:04:46;;;;;;;14.70;4.55;;;1.60;99.90;;;;;;6290630;22;20005;-85
2023/11/25 01:07:12;;;;;;;19.30;4.60;;;1.50;99.90;;;;;;6290449;22;20001;-84
2023/11/25 01:09:38;;;;;;;15.52;4.88;;;1.50;99.90;;;;;;6289934;22;20013;-84
2023/11/25 01:12:04;;;;;;;15.45;5.05;;;1.40;99.90;;;;;;6290541;22;20013;-86
2023/11/25 01:14:31;;;;;;;16.63;4.80;;;1.40;99.90;;;;;;6289682;22;20484;-85
2023/11/25 01:16:58;;;;;;;9.35;3.80;;;1.40;99.90;;;;;;6290269;22;20017;-85
2023/11/25 01:19:24;;;;;;;13.48;4.28;;;1.40;99.90;;;;;;6289682;22;20044;-85
2023/11/25 01:21:49;;;;;;;17.67;4.03;;;1.40;99.90;;;;;;6291149;22;20001;-85
2023/11/25 01:24:15;;;;;;;12.55;3.47;;;1.40;99.90;;;;;;6291042;22;20009;-85
2023/11/25 01:26:41;;;;;;;23.17;4.28;;;1.50;99.90;;;;;;6291793;22;20091;-85
2023/11/25 01:29:06;;;;;;;9.18;3.65;;;1.50;99.90;;;;;;6288975;22;20013;-83
2023/11/25 01:31:33;;;;;;;16.27;3.42;;;1.50;99.90;;;;;;6289703;22;20595;-84
2023/11/25 01:33:59;;;;;;;15.95;3.92;;;1.40;99.90;;;;;;6290098;22;20009;-84
2023/11/25 01:36:28;;;;;;;15.10;3.53;;;1.30;99.90;;;;;;6288918;22;20393;-82
2023/11/25 01:38:54;;;;;;;11.13;3.60;;;1.30;99.90;;;;;;6288516;22;20005;-84
2023/11/25 01:41:20;;;;;;;9.50;3.85;;;1.30;99.90;;;;;;6290222;22;19997;-84
2023/11/25 01:43:45;;;;;;;13.30;5.30;;;1.30;99.90;;;;;;6292141;22;20002;-83
2023/11/25 01:46:16;;;;;;;10.55;4.15;;;1.40;99.90;;;;;;6307795;22;20363;-83
2023/11/25 01:48:43;;;;;;;13.88;4.47;;;1.50;99.90;;;;;;6299002;22;20028;-83
2023/11/25 01:51:09;;;;;;;15.75;4.45;;;1.50;99.90;;;;;;6268222;22;20064;-83
2023/11/25 01:53:36;;;;;;;17.42;4.25;;;1.60;99.90;;;;;;6290071;22;20339;-83
2023/11/25 01:56:02;;;;;;;19.65;3.85;;;1.60;99.90;;;;;;6287453;22;20012;-83
2023/11/25 01:58:29;;;;;;;16.17;4.38;;;1.60;99.90;;;;;;6287334;22;20008;-84
2023/11/25 02:00:55;;;;;;;14.70;3.78;;;1.50;99.90;;;;;;6288688;22;20001;-84
2023/11/25 02:03:22;;;;;;;7.93;2.95;;;1.50;99.90;;;;;;6291639;22;20331;-84
2023/11/25 02:05:48;;;;;;;12.65;3.22;;;1.50;99.90;;;;;;6292802;22;20008;-83
2023/11/25 02:08:14;;;;;;;18.65;3.58;;;1.40;99.90;;;;;;6288980;22;20034;-84
2023/11/25 02:10:39;;;;;;;17.73;3.13;;;1.30;99.90;;;;;;6290391;22;20008;-84
2023/11/25 02:13:08;;;;;;;9.60;3.10;;;1.30;99.90;;;;;;6289219;22;20026;-84
2023/11/25 02:15:38;;;;;;;19.27;3.83;;;1.30;99.90;;;;;;6290215;22;20001;-83
2023/11/25 02:18:04;;;;;;;21.55;3.80;;;1.30;99.90;;;;;;6290736;22;20050;-83
2023/11/25 02:20:30;;;;;;;11.05;3.80;;;1.30;99.90;;;;;;6289928;22;20008;-84
2023/11/25 02:22:57;;;;;;;13.93;3.40;;;1.20;99.90;;;;;;6290712;22;20006;-84
2023/11/25 02:25:23;;;;;;;13.15;2.55;;;1.20;99.90;;;;;;6290704;22;20090;-83
2023/11/25 02:27:49;;;;;;;14.75;2.53;;;1.20;99.90;;;;;;6288451;22;19997;-83
2023/11/25 02:30:17;;;;;;;14.25;2.60;;;1.10;99.90;;;;;;6290394;22;20008;-83
2023/11/25 02:32:43;;;;;;;16.98;3.67;;;1.10;99.90;;;;;;6292282;22;20528;-83
2023/11/25 02:35:12;;;;;;;12.20;3.25;;;1.10;99.90;;;;;;6293137;22;20058;-83
2023/11/25 02:37:38;;;;;;;6.97;3.40;;;1.00;99.90;;;;;;6290761;22;20034;-83
2023/11/25 02:40:05;;;;;;;20.98;3.03;;;1.00;99.90;;;;;;6291720;22;20046;-83
2023/11/25 02:42:31;;;;;;;17.23;2.45;;;0.90;99.90;;;;;;6291963;22;20009;-84
2023/11/25 02:44:56;;;;;;;19.40;2.38;;;0.90;99.90;;;;;;6292243;22;20006;-83
2023/11/25 02:47:23;;;;;;;19.27;3.08;;;0.90;99.90;;;;;;6290878;22;20423;-83
2023/11/25 02:49:50;;;;;;;11.23;2.53;;;0.90;99.90;;;;;;6291296;22;20009;-83
2023/11/25 02:52:16;;;;;;;12.90;2.90;;;0.90;99.90;;;;;;6291124;22;20037;-84
2023/11/25 02:54:41;;;;;;;13.98;1.80;;;0.80;99.90;;;;;;6291473;22;20016;-83
2023/11/25 02:57:07;;;;;;;9.27;2.92;;;0.80;99.90;;;;;;6289361;22;20039;-83
2023/11/25 02:59:35;;;;;;;13.07;3.25;;;0.70;99.90;;;;;;6289859;22;20009;-83
2023/11/25 03:02:09;;;;;;;17.35;3.10;;;0.70;99.90;;;;;;6290377;22;20035;-83
2023/11/25 03:04:37;;;;;;;11.35;2.65;;;0.70;99.90;;;;;;6291084;22;19998;-82
2023/11/25 03:07:04;;;;;;;22.83;3.35;;;0.70;99.90;;;;;;6290071;22;20001;-83
2023/11/25 03:09:30;;;;;;;17.30;3.00;;;0.70;99.90;;;;;;6289623;22;20012;-83
2023/11/25 03:11:58;;;;;;;20.15;3.55;;;0.60;99.90;;;;;;6289775;22;20062;-84
2023/11/25 03:14:24;;;;;;;12.43;2.70;;;0.60;99.90;;;;;;6290399;22;20009;-83
2023/11/25 03:16:54;;;;;;;20.35;3.20;;;0.60;99.90;;;;;;6289628;22;20062;-83
2023/11/25 03:19:20;;;;;;;11.30;2.70;;;0.60;99.90;;;;;;6290374;22;20024;-84
2023/11/25 03:21:45;;;;;;;13.52;3.22;;;0.60;99.90;;;;;;6295476;22;20001;-83
2023/11/25 03:24:11;;;;;;;16.75;3.20;;;0.60;99.90;;;;;;6292375;22;20073;-84
2023/11/25 03:26:38;;;;;;;18.95;3.15;;;0.60;99.90;;;;;;6291209;22;20066;-83
2023/11/25 03:29:04;;;;;;;13.02;3.78;;;0.50;99.90;;;;;;6291466;22;20009;-83
2023/11/25 03:31:30;;;;;;;23.13;3.90;;;0.50;99.90;;;;;;6290545;22;20016;-83
2023/11/25 03:33:56;;;;;;;14.15;2.90;;;0.50;99.90;;;;;;6291254;22;20422;-84
2023/11/25 03:36:22;;;;;;;14.55;3.40;;;0.40;99.90;;;;;;6187339;23;20011;-84
2023/11/25 03:38:48;;;;;;;25.88;3.47;;;0.50;99.90;;;;;;6298576;22;20019;-83
2023/11/25 03:41:13;;;;;;;24.95;4.50;;;0.50;99.90;;;;;;6310782;22;20005;-83
2023/11/25 03:43:39;;;;;;;20.60;4.40;;;0.50;99.90;;;;;;6292494;22;20113;-82
2023/11/25 03:46:06;;;;;;;28.25;3.63;;;0.60;99.90;;;;;;6289406;22;20060;-82
2023/11/25 03:48:33;;;;;;;15.45;3.92;;;0.60;99.90;;;;;;6289543;22;20009;-83
2023/11/25 03:50:59;;;;;;;27.35;3.80;;;0.60;99.90;;;;;;6287309;22;20009;-82
2023/11/25 03:53:25;;;;;;;24.17;3.50;;;0.60;99.90;;;;;;6290122;22;20012;-82
2023/11/25 03:55:50;;;;;;;31.23;3.70;;;0.50;99.90;;;;;;6289567;22;20081;-82
2023/11/25 03:58:19;;;;;;;20.52;3.92;;;0.60;99.90;;;;;;6289463;22;20009;-82
2023/11/25 04:00:44;;;;;;;26.90;3.67;;;0.60;99.90;;;;;;6287120;22;20005;-82
2023/11/25 04:03:10;;;;;;;21.73;3.55;;;0.60;99.90;;;;;;6290835;22;20494;-82
2023/11/25 04:05:36;;;;;;;20.38;3.92;;;0.60;99.90;;;;;;6291105;22;20025;-82
2023/11/25 04:08:01;;;;;;;22.38;3.55;;;0.60;99.90;;;;;;6270935;22;20066;-82
2023/11/25 04:10:27;;;;;;;8.10;2.28;;;0.60;99.90;;;;;;6290889;22;20009;-82
2023/11/25 04:12:55;;;;;;;15.05;3.53;;;0.50;99.90;;;;;;6290269;22;20005;-82
2023/11/25 04:15:21;;;;;;;16.40;3.70;;;0.60;99.90;;;;;;6291417;22;20073;-82
2023/11/25 04:17:48;;;;;;;18.73;4.45;;;0.60;99.90;;;;;;6291348;22;20070;-82
2023/11/25 04:20:14;;;;;;;7.55;3.45;;;0.50;99.90;;;;;;6290188;22;20006;-83
2023/11/25 04:22:44;;;;;;;22.10;3.53;;;0.50;99.90;;;;;;6290852;22;20008;-81
2023/11/25 04:25:11;;;;;;;13.93;4.40;;;0.50;99.90;;;;;;6290194;22;20010;-83
2023/11/25 04:27:48;;;;;;;41.78;4.20;;;0.40;99.90;;;;;;6289072;22;20013;-83
2023/11/25 04:30:16;;;;;;;29.10;4.20;;;0.50;99.90;;;;;;6292632;22;20402;-83
2023/11/25 04:32:43;;;;;;;17.42;3.22;;;0.50;99.90;;;;;;6291768;22;20392;-83
2023/11/25 04:35:10;;;;;;;24.17;3.67;;;0.50;99.90;;;;;;6292213;22;20009;-82
2023/11/25 04:37:39;;;;;;;35.85;3.83;;;0.60;99.90;;;;;;6186737;23;20388;-83
2023/11/25 04:40:06;;;;;;;36.80;3.67;;;0.60;99.90;;;;;;6290686;22;20005;-82
2023/11/25 04:42:32;;;;;;;17.23;3.38;;;0.70;99.90;;;;;;6290039;22;20028;-83
2023/11/25 04:44:58;;;;;;;11.80;4.07;;;0.80;99.90;;;;;;6290586;22;20090;-82
2023/11/25 04:47:24;;;;;;;23.30;4.32;;;0.90;99.90;;;;;;6289879;22;20004;-82
2023/11/25 04:49:50;;;;;;;17.40;2.97;;;0.90;99.90;;;;;;6290298;22;20009;-83
2023/11/25 04:52:16;;;;;;;21.55;3.05;;;1.00;99.90;;;;;;6288910;22;20343;-82
2023/11/25 04:54:44;;;;;;;17.30;4.00;;;1.00;99.90;;;;;;6290901;22;20495;-83
2023/11/25 04:57:09;;;;;;;25.38;3.20;;;1.00;99.90;;;;;;6292111;22;20012;-83
2023/11/25 04:59:35;;;;;;;22.02;3.67;;;1.10;99.90;;;;;;6289369;22;20005;-82
2023/11/25 05:02:02;;;;;;;30.70;4.15;;;1.10;99.90;;;;;;6288610;22;20012;-83
2023/11/25 05:04:28;;;;;;;21.80;3.95;;;1.10;99.90;;;;;;6289758;22;20342;-82
2023/11/25 05:06:53;;;;;;;19.70;3.17;;;1.10;99.90;;;;;;6289783;22;20012;-82
2023/11/25 05:09:20;;;;;;;30.00;3.85;;;1.10;99.90;;;;;;6255537;22;20066;-82
2023/11/25 05:11:46;;;;;;;22.35;3.00;;;1.10;99.90;;;;;;6291317;22;20009;-82
2023/11/25 05:14:12;;;;;;;12.38;3.28;;;1.10;99.90;;;;;;6288590;22;20457;-82
2023/11/25 05:16:38;;;;;;;24.52;4.20;;;1.20;99.90;;;;;;6290626;22;20005;-82
2023/11/25 05:19:04;;;;;;;17.00;3.80;;;1.20;99.90;;;;;;6290381;22;20044;-82
2023/11/25 05:21:30;;;;;;;23.45;3.97;;;1.30;99.90;;;;;;6289872;22;20377;-83
2023/11/25 05:23:56;;;;;;;18.15;4.28;;;1.30;99.90;;;;;;6290507;22;20058;-83
2023/11/25 05:26:23;;;;;;;21.02;3.50;;;1.40;99.90;;;;;;6289948;22;20016;-83
2023/11/25 05:28:49;;;;;;;17.85;2.90;;;1.30;99.90;;;;;;6291945;22;20018;-83
2023/11/25 05:31:15;;;;;;;15.10;3.28;;;1.40;99.90;;;;;;6291532;22;20008;-82
2023/11/25 05:33:42;;;;;;;20.17;3.08;;;1.40;99.90;;;;;;6300384;22;20019;-82
2023/11/25 05:36:08;;;;;;;14.25;3.42;;;1.30;99.90;;;;;;6311915;22;20008;-83
2023/11/25 05:38:35;;;;;;;19.60;3.67;;;1.20;99.90;;;;;;6292972;22;20020;-82
2023/11/25 05:41:04;;;;;;;15.63;2.70;;;1.20;99.90;;;;;;6291390;22;20043;-82
2023/11/25 05:43:30;;;;;;;22.10;4.72;;;1.10;99.90;;;;;;6290108;22;20059;-82
2023/11/25 05:45:58;;;;;;;21.50;3.67;;;1.00;99.90;;;;;;6291362;22;20088;-82
2023/11/25 05:48:25;;;;;;;9.80;2.72;;;1.00;99.90;;;;;;6291410;22;20009;-82
2023/11/25 11:05:08;;;;;;;;;;;;;;;;;;;;;
2023/11/25 11:12:23;;;;;;;11.00;2.60;;;4.80;99.90;;;;;;6276994;22;20566;-85
2023/11/25 11:15:19;;;;;;;8.82;2.38;;;4.90;99.90;;;;;;6182715;23;20004;-85
2023/11/25 11:24:31;;;;;;;10.77;2.00;;;5.20;99.90;;;;;;6222040;23;20015;-85
2023/11/25 11:30:46;;;;;;;6.20;1.70;;;5.40;99.90;;;;;;6164342;23;20006;-84
2023/11/25 11:37:00;;;;;;;7.03;1.60;;;5.50;99.90;;;;;;6219958;23;20001;-85
2023/11/25 11:40:00;;;;;;;5.60;1.50;;;5.50;99.90;;;;;;6287015;22;20028;-84
2023/11/25 11:45:57;;;;;;;13.75;2.20;;;5.50;99.90;;;;;;6190852;23;20002;-85
2023/11/25 11:48:39;;;;;;;6.35;1.60;;;5.50;99.90;;;;;;6274018;22;20001;-85
2023/11/25 11:51:26;;;;;;;11.45;2.00;;;5.30;99.90;;;;;;6294373;22;20033;-84
2023/11/25 11:54:27;;;;;;;7.40;1.75;;;5.30;99.90;;;;;;6295244;22;20461;-85
2023/11/25 11:57:18;;;;;;;4.70;1.30;;;5.20;99.90;;;;;;6291965;22;20008;-86
2023/11/25 12:00:25;;;;;;;8.65;1.60;;;5.20;99.90;;;;;;6294880;22;20040;-85
2023/11/25 12:03:05;;;;;;;5.38;1.35;;;5.20;99.90;;;;;;6247833;22;20016;-85
2023/11/25 12:06:19;;;;;;;;;;;;;;;;;;;;;
2023/11/25 12:12:09;;;;;;;45.85;19.48;;;5.20;99.90;;;;;;6250486;22;20009;-85
2023/11/25 12:14:46;;;;;;;14.48;2.85;;;5.20;99.90;;;;;;6295517;22;20005;-85
2023/11/25 12:17:27;;;;;;;10.57;1.80;;;5.30;99.90;;;;;;6294587;22;20046;-85
2023/11/25 12:20:19;;;;;;;9.30;2.00;;;5.30;99.90;;;;;;6294233;22;20427;-85
2023/11/25 12:23:13;;;;;;;5.03;1.50;;;5.20;99.90;;;;;;6287491;22;20032;-85
2023/11/25 12:25:49;;;;;;;7.93;2.05;;;5.20;99.90;;;;;;6282651;22;20339;-85
2023/11/25 12:28:17;;;;;;;10.55;2.25;;;5.20;99.90;;;;;;6293035;22;20450;-84
2023/11/25 12:30:46;;;;;;;14.00;2.28;;;5.20;99.90;;;;;;6294241;22;20009;-83
2023/11/25 12:36:38;;;;;;;9.43;2.22;;;5.10;99.90;;;;;;6191801;22;20054;-85
2023/11/25 12:39:10;;;;;;;9.48;1.80;;;5.10;99.90;;;;;;6292026;22;20070;-83
2023/11/25 12:41:38;;;;;;;9.45;1.88;;;5.10;99.90;;;;;;6291985;22;20005;-86
2023/11/25 12:44:05;;;;;;;2.83;1.13;;;5.10;99.90;;;;;;6293466;22;20003;-82
2023/11/25 12:46:31;;;;;;;6.30;1.20;;;5.10;99.90;;;;;;6301595;22;20457;-82
2023/11/25 12:48:59;;;;;;;6.03;1.15;;;5.10;99.90;;;;;;6290934;22;20033;-83
2023/11/25 12:51:25;;;;;;;3.78;1.27;;;5.10;99.90;;;;;;6291181;22;20055;-86
2023/11/25 12:53:53;;;;;;;8.15;1.23;;;5.10;99.90;;;;;;6290600;22;20027;-84
2023/11/25 12:56:21;;;;;;;7.25;1.60;;;5.10;99.90;;;;;;6291606;22;20004;-84
2023/11/25 12:58:47;;;;;;;7.15;1.42;;;5.20;99.90;;;;;;6289719;22;20012;-84
2023/11/25 13:01:13;;;;;;;11.20;1.15;;;5.20;99.90;;;;;;6290542;22;20009;-84
2023/11/25 13:03:39;;;;;;;6.75;1.20;;;5.30;99.90;;;;;;6290298;22;20308;-84
2023/11/25 13:06:11;;;;;;;12.85;2.08;;;5.30;99.90;;;;;;6290748;22;20059;-84
2023/11/25 13:08:44;;;;;;;6.28;1.45;;;5.40;99.90;;;;;;6290687;22;20062;-83
2023/11/25 13:11:11;;;;;;;9.30;1.73;;;5.60;99.90;;;;;;6252433;22;20611;-84
2023/11/25 13:13:40;;;;;;;3.30;1.10;;;5.70;99.90;;;;;;6292237;22;20065;-83
2023/11/25 13:16:08;;;;;;;10.32;1.48;;;5.80;99.90;;;;;;6291671;22;20040;-85
2023/11/25 13:18:34;;;;;;;5.22;1.48;;;5.80;99.90;;;;;;6290039;22;20009;-84
2023/11/25 13:21:07;;;;;;;5.05;2.15;;;5.80;99.90;;;;;;6291969;22;20032;-84
2023/11/25 13:23:33;;;;;;;13.33;3.33;;;5.70;99.90;;;;;;6290004;22;20005;-84
2023/11/25 13:25:59;;;;;;;12.70;4.47;;;5.70;99.90;;;;;;6290620;22;20016;-84
2023/11/25 13:28:25;;;;;;;10.55;2.25;;;5.70;99.90;;;;;;6291582;22;20037;-84
2023/11/25 13:30:51;;;;;;;18.35;3.67;;;5.80;99.90;;;;;;6290796;22;20017;-85
2023/11/25 13:33:17;;;;;;;6.28;1.70;;;5.70;99.90;;;;;;6291783;22;20068;-85
2023/11/25 13:35:44;;;;;;;5.80;1.67;;;5.70;99.90;;;;;;6291505;22;20028;-83
2023/11/25 13:38:12;;;;;;;13.13;2.58;;;5.70;99.90;;;;;;6292193;22;20017;-84
2023/11/25 13:40:38;;;;;;;6.65;1.92;;;5.70;99.90;;;;;;6293362;22;20016;-85
2023/11/25 13:43:07;;;;;;;12.95;2.17;;;5.70;99.90;;;;;;6292225;22;20005;-84
2023/11/25 13:45:33;;;;;;;19.88;4.22;;;5.70;99.90;;;;;;6293123;22;20434;-83
2023/11/25 13:48:04;;;;;;;6.45;1.98;;;5.70;99.90;;;;;;6292576;22;20001;-84
2023/11/25 13:50:33;;;;;;;7.78;2.35;;;5.60;99.90;;;;;;6294664;22;20442;-83
2023/11/25 13:53:01;;;;;;;13.00;2.00;;;5.60;99.90;;;;;;6290185;22;20013;-83
2023/11/25 13:55:27;;;;;;;8.10;2.45;;;5.60;99.90;;;;;;6290951;22;20005;-84
2023/11/25 13:57:54;;;;;;;10.65;2.33;;;5.60;99.90;;;;;;6290306;22;20051;-82
2023/11/25 14:00:22;;;;;;;8.70;1.73;;;5.60;99.90;;;;;;6290000;22;20061;-81
2023/11/25 14:02:49;;;;;;;15.45;2.28;;;5.60;99.90;;;;;;6289509;22;20431;-82
2023/11/25 14:05:15;;;;;;;13.38;1.75;;;5.60;99.90;;;;;;6292604;22;20001;-84
2023/11/25 14:07:44;;;;;;;14.68;3.15;;;5.60;99.90;;;;;;6290205;22;20020;-83
2023/11/25 14:10:11;;;;;;;8.77;1.58;;;5.60;99.90;;;;;;6289428;22;20012;-84
2023/11/25 14:12:42;;;;;;;12.07;2.42;;;5.60;99.90;;;;;;6251525;22;20063;-83
2023/11/25 14:15:09;;;;;;;8.65;1.35;;;5.60;99.90;;;;;;6294285;22;19993;-81
2023/11/25 14:17:39;;;;;;;8.38;1.88;;;5.60;99.90;;;;;;6306766;22;20094;-81
2023/11/25 14:20:16;;;;;;;6.70;1.40;;;5.60;99.90;;;;;;6289979;22;20024;-82
2023/11/25 14:22:46;;;;;;;6.72;1.58;;;5.60;99.90;;;;;;6288512;22;20009;-82
2023/11/25 14:25:17;;;;;;;14.18;1.85;;;5.60;99.90;;;;;;6288789;22;20088;-83
2023/11/25 14:27:44;;;;;;;9.70;1.42;;;5.60;99.90;;;;;;6289873;22;20511;-82
2023/11/25 14:30:12;;;;;;;6.53;1.35;;;5.40;99.90;;;;;;6290643;22;20001;-83
2023/11/25 14:32:39;;;;;;;6.40;1.65;;;5.30;99.90;;;;;;6290360;22;20015;-83
2023/11/25 14:35:06;;;;;;;10.27;1.23;;;5.20;99.90;;;;;;6290173;22;20040;-82
2023/11/25 14:37:35;;;;;;;3.88;0.85;;;5.20;99.90;;;;;;6290582;22;20017;-82
2023/11/25 14:40:06;;;;;;;5.20;1.08;;;5.20;99.90;;;;;;6290161;22;20400;-83
2023/11/25 14:42:34;;;;;;;8.50;1.30;;;5.20;99.90;;;;;;6292367;22;20009;-83
2023/11/25 14:45:00;;;;;;;6.65;2.25;;;5.10;99.90;;;;;;6291600;22;20005;-84
2023/11/25 14:47:26;;;;;;;9.95;1.55;;;5.10;99.90;;;;;;6290434;22;20043;-83
2023/11/25 14:49:52;;;;;;;5.25;1.73;;;5.10;99.90;;;;;;6290122;22;20013;-84
2023/11/25 14:52:19;;;;;;;3.08;1.75;;;5.00;99.90;;;;;;6265196;22;20053;-82
2023/11/25 14:54:45;;;;;;;6.55;1.50;;;5.00;99.90;;;;;;6290975;22;20012;-82
2023/11/25 14:57:11;;;;;;;7.80;1.42;;;4.90;99.90;;;;;;6292248;22;20005;-84
2023/11/25 14:59:37;;;;;;;7.82;1.30;;;4.80;99.90;;;;;;6291125;22;20016;-83
2023/11/25 15:02:03;;;;;;;7.95;1.25;;;4.80;99.90;;;;;;6291890;22;20028;-83
2023/11/25 15:04:29;;;;;;;5.55;1.70;;;4.70;99.90;;;;;;6291904;22;20005;-82
2023/11/25 15:06:56;;;;;;;6.90;1.35;;;4.70;99.90;;;;;;6291861;22;20001;-82
2023/11/25 15:09:22;;;;;;;5.55;1.33;;;4.60;99.90;;;;;;6292698;22;20009;-84
2023/11/25 15:11:49;;;;;;;4.60;1.60;;;4.60;99.90;;;;;;6291636;22;20041;-82
2023/11/25 15:14:15;;;;;;;9.45;2.47;;;4.60;99.90;;;;;;6291517;22;20020;-82
2023/11/25 15:16:41;;;;;;;11.18;3.33;;;4.50;99.90;;;;;;6292618;22;20064;-83
2023/11/25 15:19:07;;;;;;;4.47;1.60;;;4.50;99.90;;;;;;6291148;22;20009;-83
2023/11/25 15:21:33;;;;;;;3.35;1.13;;;4.50;99.90;;;;;;6291177;22;20058;-84
2023/11/25 15:23:59;;;;;;;3.95;0.88;;;4.40;99.90;;;;;;6292403;22;20001;-82
2023/11/25 15:26:26;;;;;;;6.55;1.17;;;4.40;99.90;;;;;;6291594;22;20021;-84
2023/11/25 15:28:55;;;;;;;2.08;1.20;;;4.40;99.90;;;;;;6291502;22;20020;-83
2023/11/25 15:31:21;;;;;;;7.80;1.23;;;4.30;99.90;;;;;;6291334;22;20387;-84
2023/11/25 15:33:48;;;;;;;10.25;1.52;;;4.30;99.90;;;;;;6290924;22;20059;-82
2023/11/25 15:36:15;;;;;;;9.55;2.15;;;4.20;99.90;;;;;;6292778;22;20031;-84
2023/11/25 15:38:42;;;;;;;3.28;1.70;;;4.20;99.90;;;;;;6292475;22;20017;-84
2023/11/25 15:41:09;;;;;;;6.55;1.77;;;4.10;99.90;;;;;;6292436;22;20008;-82
2023/11/25 15:43:37;;;;;;;5.63;1.98;;;4.10;99.90;;;;;;6291814;22;20005;-84
2023/11/25 15:46:05;;;;;;;9.60;1.80;;;4.10;99.90;;;;;;6291561;22;20012;-84
2023/11/25 15:48:32;;;;;;;5.28;1.50;;;4.00;99.90;;;;;;6291865;22;20037;-84
2023/11/25 15:50:59;;;;;;;6.32;1.75;;;4.00;99.90;;;;;;6290812;22;20008;-82
2023/11/25 15:53:25;;;;;;;10.32;2.50;;;4.00;99.90;;;;;;6291687;22;20001;-83
2023/11/25 15:55:51;;;;;;;7.32;1.70;;;4.00;99.90;;;;;;6290626;22;20011;-84
2023/11/25 15:58:18;;;;;;;13.23;1.63;;;4.00;99.90;;;;;;6291141;22;20002;-83
2023/11/25 16:00:45;;;;;;;16.58;5.20;;;4.10;99.90;;;;;;6291367;22;20013;-82
2023/11/25 16:03:10;;;;;;;13.60;4.80;;;4.20;99.90;;;;;;6291768;22;20042;-83
2023/11/25 16:05:37;;;;;;;11.10;2.40;;;4.20;99.90;;;;;;6308462;22;20051;-81
2023/11/25 16:08:03;;;;;;;18.63;2.63;;;4.20;99.90;;;;;;6302919;22;20009;-83
2023/11/25 16:10:31;;;;;;;7.45;2.60;;;4.20;99.90;;;;;;6291360;22;20131;-82
2023/11/25 16:13:00;;;;;;;9.10;2.10;;;4.20;99.90;;;;;;6290701;22;20008;-84
2023/11/25 16:15:28;;;;;;;12.43;2.65;;;4.30;99.90;;;;;;6290424;22;20431;-84
2023/11/25 16:17:54;;;;;;;18.20;4.97;;;4.30;99.90;;;;;;6290750;22;20009;-82
2023/11/25 16:20:20;;;;;;;14.07;3.03;;;4.40;99.90;;;;;;6289710;22;20088;-84
2023/11/25 16:22:48;;;;;;;14.00;2.42;;;4.40;99.90;;;;;;6290753;22;20392;-83
2023/11/25 16:25:14;;;;;;;6.35;2.83;;;4.40;99.90;;;;;;6290908;22;20005;-82
2023/11/25 16:27:40;;;;;;;13.60;2.97;;;4.50;99.90;;;;;;6291075;22;20025;-83
2023/11/25 16:30:08;;;;;;;23.60;2.55;;;4.50;99.90;;;;;;6290970;22;20044;-82
2023/11/25 16:32:34;;;;;;;6.97;2.65;;;4.60;99.90;;;;;;6291052;22;20315;-82
2023/11/25 16:35:00;;;;;;;13.98;2.15;;;4.60;99.90;;;;;;6290869;22;20009;-83
2023/11/25 16:37:26;;;;;;;9.32;2.78;;;4.70;99.90;;;;;;6289537;22;20074;-83
2023/11/25 16:39:52;;;;;;;16.20;3.70;;;4.70;99.90;;;;;;6291401;22;20009;-83
2023/11/25 16:42:18;;;;;;;12.50;3.75;;;4.70;99.90;;;;;;6290186;22;20327;-84
2023/11/25 16:44:44;;;;;;;15.60;3.25;;;4.70;99.90;;;;;;6290960;22;20009;-83
2023/11/25 16:47:10;;;;;;;10.32;3.72;;;4.70;99.90;;;;;;6290229;22;20012;-84
2023/11/25 16:49:36;;;;;;;24.48;3.70;;;4.70;99.90;;;;;;6291979;22;20378;-84
2023/11/25 16:52:02;;;;;;;15.40;3.60;;;4.70;99.90;;;;;;6291266;22;20084;-84
2023/11/25 16:54:28;;;;;;;13.18;3.03;;;4.70;99.90;;;;;;6290678;22;20009;-84
2023/11/25 16:56:54;;;;;;;13.98;3.25;;;4.70;99.90;;;;;;6290543;22;20458;-83
2023/11/25 16:59:20;;;;;;;11.75;2.65;;;4.80;99.90;;;;;;6291092;22;20016;-82
2023/11/25 17:01:46;;;;;;;8.45;2.85;;;4.80;99.90;;;;;;6290944;22;20001;-83
2023/11/25 17:04:12;;;;;;;7.53;2.33;;;4.80;99.90;;;;;;6291429;22;20347;-83
2023/11/25 17:06:39;;;;;;;11.57;2.90;;;4.80;99.90;;;;;;6289557;22;20001;-84
2023/11/25 17:09:05;;;;;;;13.50;2.60;;;4.80;99.90;;;;;;6289471;22;20015;-83
2023/11/25 17:11:31;;;;;;;10.50;2.72;;;4.80;99.90;;;;;;6289385;22;20080;-84
2023/11/25 17:13:57;;;;;;;18.17;2.90;;;4.90;99.90;;;;;;6291205;22;20001;-83
2023/11/25 17:16:25;;;;;;;25.52;4.50;;;4.90;99.90;;;;;;6290201;22;20028;-83
2023/11/25 17:18:54;;;;;;;16.83;3.05;;;4.90;99.90;;;;;;6289319;22;20013;-84
2023/11/25 17:21:20;;;;;;;15.93;2.35;;;5.00;99.90;;;;;;6289751;22;20008;-83
2023/11/25 17:23:45;;;;;;;11.05;3.30;;;5.00;99.90;;;;;;6290104;22;20001;-84
2023/11/25 17:26:11;;;;;;;11.23;2.80;;;5.00;99.90;;;;;;6289032;22;20009;-83
2023/11/25 17:28:37;;;;;;;11.00;2.42;;;5.00;99.90;;;;;;6289459;22;20008;-84
2023/11/25 17:31:04;;;;;;;13.25;3.10;;;5.00;99.90;;;;;;6289942;22;20014;-83
2023/11/25 17:33:30;;;;;;;18.10;3.00;;;5.00;99.90;;;;;;6290197;22;20001;-84
2023/11/25 17:35:56;;;;;;;18.23;2.25;;;5.10;99.90;;;;;;6290059;22;20312;-84
2023/11/25 17:38:25;;;;;;;8.63;2.30;;;5.10;99.90;;;;;;6289189;22;20016;-83
2023/11/25 17:40:51;;;;;;;10.45;2.80;;;5.20;99.90;;;;;;6291159;22;20036;-84
2023/11/25 17:43:18;;;;;;;8.38;1.98;;;5.10;99.90;;;;;;6290512;22;20001;-84
2023/11/25 17:45:46;;;;;;;3.28;1.35;;;5.00;99.90;;;;;;6289925;22;20343;-84
2023/11/25 17:48:13;;;;;;;8.60;1.63;;;4.90;99.90;;;;;;6290349;22;20012;-84
2023/11/25 17:50:38;;;;;;;7.05;2.10;;;4.80;99.90;;;;;;6290652;22;20065;-82
2023/11/25 17:53:05;;;;;;;8.00;1.45;;;4.60;99.90;;;;;;6290969;22;20012;-83
2023/11/25 17:55:31;;;;;;;5.25;1.60;;;4.50;99.90;;;;;;6307646;22;19997;-81
2023/11/25 17:57:57;;;;;;;8.25;2.20;;;4.50;99.90;;;;;;6303913;22;20013;-83
2023/11/25 18:00:23;;;;;;;4.75;2.25;;;4.50;99.90;;;;;;6290088;22;20005;-84
2023/11/25 18:02:49;;;;;;;4.35;1.80;;;4.40;99.90;;;;;;6288471;22;20017;-80
2023/11/25 18:05:15;;;;;;;8.55;1.45;;;4.30;99.90;;;;;;6292134;22;20005;-82
2023/11/25 18:07:42;;;;;;;5.40;1.08;;;4.30;99.90;;;;;;6289381;22;20012;-80
2023/11/25 18:10:09;;;;;;;2.60;1.00;;;4.20;99.90;;;;;;6289926;22;20084;-84
2023/11/25 18:12:36;;;;;;;7.00;1.08;;;4.10;99.90;;;;;;6290304;22;20088;-79
2023/11/25 18:15:02;;;;;;;7.28;1.23;;;4.00;99.90;;;;;;6287292;22;20020;-84
2023/11/25 18:17:28;;;;;;;4.13;1.20;;;3.90;99.90;;;;;;6287607;22;20001;-85
2023/11/25 18:19:53;;;;;;;1.73;0.65;;;3.80;99.90;;;;;;6289394;22;20446;-82
2023/11/25 18:22:19;;;;;;;3.63;1.67;;;3.70;99.90;;;;;;6289109;22;20331;-81
2023/11/25 18:24:45;;;;;;;5.22;2.42;;;3.70;99.90;;;;;;6294307;22;20381;-84
2023/11/25 18:27:11;;;;;;;9.55;2.83;;;3.70;99.90;;;;;;6288483;22;20135;-83
2023/11/25 18:29:37;;;;;;;5.47;2.25;;;3.60;99.90;;;;;;6290891;22;20020;-84
2023/11/25 18:32:03;;;;;;;4.55;1.85;;;3.60;99.90;;;;;;6290805;22;20039;-85
2023/11/25 18:34:29;;;;;;;10.80;3.00;;;3.50;99.90;;;;;;6291850;22;20028;-84
2023/11/25 18:36:56;;;;;;;6.00;3.25;;;3.50;99.90;;;;;;6291031;22;20103;-85
2023/11/25 18:39:23;;;;;;;12.18;2.85;;;3.50;99.90;;;;;;6289805;22;20016;-83